sensor_id;sensor_type;location;lat;lon;timestamp;P1;durP1;ratioP1;P2;durP2;ratioP2
78895;SDS011;68284;59.124;37.910;2023-07-30T00:01:01;2.17;;;1.98;;
78895;SDS011;68284;59.124;37.910;2023-07-30T00:03:27;1.70;;;1.55;;
78895;SDS011;68284;59.124;37.910;2023-07-30T00:05:54;2.42;;;1.58;;
78895;SDS011;68284;59.124;37.910;2023-07-30T00:08:20;2.42;;;2.22;;
78895;SDS011;68284;59.124;37.910;2023-07-30T00:10:47;4.28;;;2.53;;
78895;SDS011;68284;59.124;37.910;2023-07-30T00:13:13;3.45;;;2.17;;
78895;SDS011;68284;59.124;37.910;2023-07-30T00:15:40;2.78;;;2.55;;
78895;SDS011;68284;59.124;37.910;2023-07-30T00:18:06;2.58;;;2.38;;
78895;SDS011;68284;59.124;37.910;2023-07-30T00:23:00;3.22;;;2.53;;
78895;SDS011;68284;59.124;37.910;2023-07-30T00:25:27;2.58;;;2.38;;
78895;SDS011;68284;59.124;37.910;2023-07-30T00:30:19;3.53;;;3.00;;
78895;SDS011;68284;59.124;37.910;2023-07-30T00:32:45;4.30;;;2.85;;
78895;SDS011;68284;59.124;37.910;2023-07-30T00:35:12;2.92;;;1.50;;
78895;SDS011;68284;59.124;37.910;2023-07-30T00:37:38;3.05;;;1.50;;
78895;SDS011;68284;59.124;37.910;2023-07-30T00:40:06;2.10;;;1.90;;
78895;SDS011;68284;59.124;37.910;2023-07-30T00:42:33;2.00;;;1.63;;
78895;SDS011;68284;59.124;37.910;2023-07-30T00:47:25;2.38;;;1.52;;
78895;SDS011;68284;59.124;37.910;2023-07-30T00:49:52;3.53;;;1.98;;
78895;SDS011;68284;59.124;37.910;2023-07-30T00:52:20;2.40;;;2.20;;
78895;SDS011;68284;59.124;37.910;2023-07-30T00:54:50;1.83;;;1.55;;
78895;SDS011;68284;59.124;37.910;2023-07-30T00:57:18;1.90;;;1.45;;
78895;SDS011;68284;59.124;37.910;2023-07-30T00:59:45;2.42;;;1.30;;
78895;SDS011;68284;59.124;37.910;2023-07-30T01:02:13;2.53;;;2.33;;
78895;SDS011;68284;59.124;37.910;2023-07-30T01:04:40;2.00;;;1.50;;
78895;SDS011;68284;59.124;37.910;2023-07-30T01:07:07;3.42;;;3.10;;
78895;SDS011;68284;59.124;37.910;2023-07-30T01:09:34;3.75;;;1.92;;
78895;SDS011;68284;59.124;37.910;2023-07-30T01:12:01;2.10;;;1.63;;
78895;SDS011;68284;59.124;37.910;2023-07-30T01:14:28;1.70;;;1.60;;
78895;SDS011;68284;59.124;37.910;2023-07-30T01:16:55;3.47;;;1.50;;
78895;SDS011;68284;59.124;37.910;2023-07-30T01:19:21;2.47;;;2.28;;
78895;SDS011;68284;59.124;37.910;2023-07-30T01:24:14;2.08;;;1.70;;
78895;SDS011;68284;59.124;37.910;2023-07-30T01:29:22;2.45;;;2.25;;
78895;SDS011;68284;59.124;37.910;2023-07-30T01:31:57;3.22;;;3.03;;
78895;SDS011;68284;59.124;37.910;2023-07-30T01:34:30;2.55;;;2.17;;
78895;SDS011;68284;59.124;37.910;2023-07-30T01:36:59;2.47;;;2.28;;
78895;SDS011;68284;59.124;37.910;2023-07-30T01:39:27;2.25;;;1.70;;
78895;SDS011;68284;59.124;37.910;2023-07-30T01:41:54;1.92;;;1.70;;
78895;SDS011;68284;59.124;37.910;2023-07-30T01:44:20;2.67;;;1.80;;
78895;SDS011;68284;59.124;37.910;2023-07-30T01:46:47;3.60;;;2.33;;
78895;SDS011;68284;59.124;37.910;2023-07-30T01:49:13;2.78;;;1.38;;
78895;SDS011;68284;59.124;37.910;2023-07-30T01:51:39;2.63;;;1.70;;
78895;SDS011;68284;59.124;37.910;2023-07-30T01:54:05;3.72;;;1.75;;
78895;SDS011;68284;59.124;37.910;2023-07-30T01:56:32;2.08;;;1.88;;
78895;SDS011;68284;59.124;37.910;2023-07-30T01:58:58;3.17;;;1.70;;
78895;SDS011;68284;59.124;37.910;2023-07-30T02:01:25;4.55;;;2.20;;
78895;SDS011;68284;59.124;37.910;2023-07-30T02:03:51;2.35;;;2.05;;
78895;SDS011;68284;59.124;37.910;2023-07-30T02:06:17;3.22;;;2.30;;
78895;SDS011;68284;59.124;37.910;2023-07-30T02:11:10;2.80;;;1.80;;
78895;SDS011;68284;59.124;37.910;2023-07-30T02:13:36;1.60;;;1.25;;
78895;SDS011;68284;59.124;37.910;2023-07-30T02:16:02;2.38;;;2.17;;
78895;SDS011;68284;59.124;37.910;2023-07-30T02:18:29;2.25;;;1.85;;
78895;SDS011;68284;59.124;37.910;2023-07-30T02:20:55;1.58;;;1.48;;
78895;SDS011;68284;59.124;37.910;2023-07-30T02:25:47;3.80;;;1.88;;
78895;SDS011;68284;59.124;37.910;2023-07-30T02:28:14;3.53;;;3.22;;
78895;SDS011;68284;59.124;37.910;2023-07-30T02:33:06;4.53;;;2.40;;
78895;SDS011;68284;59.124;37.910;2023-07-30T02:35:32;2.65;;;2.45;;
78895;SDS011;68284;59.124;37.910;2023-07-30T02:37:59;3.22;;;2.25;;
78895;SDS011;68284;59.124;37.910;2023-07-30T02:40:26;4.07;;;2.47;;
78895;SDS011;68284;59.124;37.910;2023-07-30T02:42:52;5.40;;;2.85;;
78895;SDS011;68284;59.124;37.910;2023-07-30T02:45:19;13.85;;;3.38;;
78895;SDS011;68284;59.124;37.910;2023-07-30T02:47:45;6.90;;;4.28;;
78895;SDS011;68284;59.124;37.910;2023-07-30T02:50:12;11.23;;;3.97;;
78895;SDS011;68284;59.124;37.910;2023-07-30T02:55:04;10.90;;;3.70;;
78895;SDS011;68284;59.124;37.910;2023-07-30T02:57:31;16.95;;;5.18;;
78895;SDS011;68284;59.124;37.910;2023-07-30T02:59:57;11.02;;;5.95;;
78895;SDS011;68284;59.124;37.910;2023-07-30T03:02:23;14.95;;;6.30;;
78895;SDS011;68284;59.124;37.910;2023-07-30T03:04:50;11.13;;;5.53;;
78895;SDS011;68284;59.124;37.910;2023-07-30T03:07:16;10.75;;;4.95;;
78895;SDS011;68284;59.124;37.910;2023-07-30T03:09:44;11.27;;;5.32;;
78895;SDS011;68284;59.124;37.910;2023-07-30T03:12:10;12.18;;;5.03;;
78895;SDS011;68284;59.124;37.910;2023-07-30T03:17:02;14.27;;;5.03;;
78895;SDS011;68284;59.124;37.910;2023-07-30T03:19:30;9.57;;;3.42;;
78895;SDS011;68284;59.124;37.910;2023-07-30T03:21:57;10.60;;;5.20;;
78895;SDS011;68284;59.124;37.910;2023-07-30T03:24:23;15.88;;;4.28;;
78895;SDS011;68284;59.124;37.910;2023-07-30T03:26:49;7.05;;;5.03;;
78895;SDS011;68284;59.124;37.910;2023-07-30T03:29:16;15.38;;;5.47;;
78895;SDS011;68284;59.124;37.910;2023-07-30T03:31:42;9.35;;;5.50;;
78895;SDS011;68284;59.124;37.910;2023-07-30T03:34:08;12.70;;;6.13;;
78895;SDS011;68284;59.124;37.910;2023-07-30T03:36:34;16.60;;;7.65;;
78895;SDS011;68284;59.124;37.910;2023-07-30T03:39:01;17.48;;;8.20;;
78895;SDS011;68284;59.124;37.910;2023-07-30T03:41:27;21.08;;;7.57;;
78895;SDS011;68284;59.124;37.910;2023-07-30T03:43:54;19.27;;;7.65;;
78895;SDS011;68284;59.124;37.910;2023-07-30T03:46:20;16.67;;;8.57;;
78895;SDS011;68284;59.124;37.910;2023-07-30T03:48:46;15.65;;;6.80;;
78895;SDS011;68284;59.124;37.910;2023-07-30T03:51:12;20.92;;;6.78;;
78895;SDS011;68284;59.124;37.910;2023-07-30T03:53:39;16.83;;;7.75;;
78895;SDS011;68284;59.124;37.910;2023-07-30T03:56:05;15.95;;;7.82;;
78895;SDS011;68284;59.124;37.910;2023-07-30T03:58:31;16.10;;;6.63;;
78895;SDS011;68284;59.124;37.910;2023-07-30T04:00:58;21.38;;;7.00;;
78895;SDS011;68284;59.124;37.910;2023-07-30T04:03:24;17.88;;;7.68;;
78895;SDS011;68284;59.124;37.910;2023-07-30T04:05:50;14.27;;;6.40;;
78895;SDS011;68284;59.124;37.910;2023-07-30T04:08:17;15.90;;;7.88;;
78895;SDS011;68284;59.124;37.910;2023-07-30T04:10:44;15.13;;;7.47;;
78895;SDS011;68284;59.124;37.910;2023-07-30T04:13:10;14.88;;;6.15;;
78895;SDS011;68284;59.124;37.910;2023-07-30T04:15:36;10.52;;;6.22;;
78895;SDS011;68284;59.124;37.910;2023-07-30T04:18:03;7.60;;;4.03;;
78895;SDS011;68284;59.124;37.910;2023-07-30T04:20:29;8.88;;;5.03;;
78895;SDS011;68284;59.124;37.910;2023-07-30T04:22:55;4.50;;;3.22;;
78895;SDS011;68284;59.124;37.910;2023-07-30T04:25:22;4.47;;;3.20;;
78895;SDS011;68284;59.124;37.910;2023-07-30T04:27:48;6.15;;;4.18;;
78895;SDS011;68284;59.124;37.910;2023-07-30T04:30:15;4.05;;;2.53;;
78895;SDS011;68284;59.124;37.910;2023-07-30T04:32:41;5.50;;;3.20;;
78895;SDS011;68284;59.124;37.910;2023-07-30T04:35:07;3.40;;;3.10;;
78895;SDS011;68284;59.124;37.910;2023-07-30T04:37:34;4.55;;;3.28;;
78895;SDS011;68284;59.124;37.910;2023-07-30T04:40:00;4.13;;;2.80;;
78895;SDS011;68284;59.124;37.910;2023-07-30T04:42:29;4.35;;;2.95;;
78895;SDS011;68284;59.124;37.910;2023-07-30T04:44:56;2.67;;;2.15;;
78895;SDS011;68284;59.124;37.910;2023-07-30T04:47:22;3.70;;;2.80;;
78895;SDS011;68284;59.124;37.910;2023-07-30T04:49:48;6.13;;;3.00;;
78895;SDS011;68284;59.124;37.910;2023-07-30T04:52:15;7.85;;;4.18;;
78895;SDS011;68284;59.124;37.910;2023-07-30T04:54:41;9.02;;;3.70;;
78895;SDS011;68284;59.124;37.910;2023-07-30T04:57:07;5.50;;;3.30;;
78895;SDS011;68284;59.124;37.910;2023-07-30T04:59:34;6.30;;;4.43;;
78895;SDS011;68284;59.124;37.910;2023-07-30T05:02:00;5.35;;;3.35;;
78895;SDS011;68284;59.124;37.910;2023-07-30T05:04:26;6.82;;;3.28;;
78895;SDS011;68284;59.124;37.910;2023-07-30T05:06:53;10.73;;;5.65;;
78895;SDS011;68284;59.124;37.910;2023-07-30T05:09:19;4.75;;;2.78;;
78895;SDS011;68284;59.124;37.910;2023-07-30T05:11:45;5.72;;;3.30;;
78895;SDS011;68284;59.124;37.910;2023-07-30T05:14:11;3.53;;;2.95;;
78895;SDS011;68284;59.124;37.910;2023-07-30T05:16:37;4.65;;;2.83;;
78895;SDS011;68284;59.124;37.910;2023-07-30T05:19:04;4.03;;;2.72;;
78895;SDS011;68284;59.124;37.910;2023-07-30T05:21:30;3.75;;;3.03;;
78895;SDS011;68284;59.124;37.910;2023-07-30T05:23:56;4.15;;;2.60;;
78895;SDS011;68284;59.124;37.910;2023-07-30T05:26:22;5.03;;;3.40;;
78895;SDS011;68284;59.124;37.910;2023-07-30T05:28:49;7.07;;;3.65;;
78895;SDS011;68284;59.124;37.910;2023-07-30T05:31:15;4.85;;;2.55;;
78895;SDS011;68284;59.124;37.910;2023-07-30T05:33:41;8.38;;;2.80;;
78895;SDS011;68284;59.124;37.910;2023-07-30T05:36:07;6.97;;;2.78;;
78895;SDS011;68284;59.124;37.910;2023-07-30T05:38:33;6.32;;;4.07;;
78895;SDS011;68284;59.124;37.910;2023-07-30T05:41:00;4.85;;;3.15;;
78895;SDS011;68284;59.124;37.910;2023-07-30T05:43:26;3.35;;;2.70;;
78895;SDS011;68284;59.124;37.910;2023-07-30T05:45:52;4.47;;;3.22;;
78895;SDS011;68284;59.124;37.910;2023-07-30T05:48:18;5.70;;;2.80;;
78895;SDS011;68284;59.124;37.910;2023-07-30T05:50:45;5.22;;;3.30;;
78895;SDS011;68284;59.124;37.910;2023-07-30T05:53:11;4.45;;;3.78;;
78895;SDS011;68284;59.124;37.910;2023-07-30T05:55:37;5.10;;;2.97;;
78895;SDS011;68284;59.124;37.910;2023-07-30T05:58:03;5.75;;;3.42;;
78895;SDS011;68284;59.124;37.910;2023-07-30T06:00:30;6.65;;;3.63;;
78895;SDS011;68284;59.124;37.910;2023-07-30T06:02:56;5.60;;;2.75;;
78895;SDS011;68284;59.124;37.910;2023-07-30T06:05:22;5.70;;;3.22;;
78895;SDS011;68284;59.124;37.910;2023-07-30T06:07:48;4.22;;;3.08;;
78895;SDS011;68284;59.124;37.910;2023-07-30T06:10:14;6.07;;;3.33;;
78895;SDS011;68284;59.124;37.910;2023-07-30T06:12:41;4.95;;;3.53;;
78895;SDS011;68284;59.124;37.910;2023-07-30T06:15:08;4.78;;;3.08;;
78895;SDS011;68284;59.124;37.910;2023-07-30T06:17:35;4.43;;;2.50;;
78895;SDS011;68284;59.124;37.910;2023-07-30T06:20:01;2.92;;;2.38;;
78895;SDS011;68284;59.124;37.910;2023-07-30T06:22:28;4.57;;;2.63;;
78895;SDS011;68284;59.124;37.910;2023-07-30T06:24:54;5.40;;;3.22;;
78895;SDS011;68284;59.124;37.910;2023-07-30T06:27:20;7.55;;;3.42;;
78895;SDS011;68284;59.124;37.910;2023-07-30T06:29:47;5.03;;;3.40;;
78895;SDS011;68284;59.124;37.910;2023-07-30T06:32:13;7.07;;;3.53;;
78895;SDS011;68284;59.124;37.910;2023-07-30T06:34:39;4.93;;;3.13;;
78895;SDS011;68284;59.124;37.910;2023-07-30T06:37:05;5.65;;;3.83;;
78895;SDS011;68284;59.124;37.910;2023-07-30T06:39:32;3.83;;;3.50;;
78895;SDS011;68284;59.124;37.910;2023-07-30T06:41:58;4.78;;;3.15;;
78895;SDS011;68284;59.124;37.910;2023-07-30T06:44:24;6.28;;;4.20;;
78895;SDS011;68284;59.124;37.910;2023-07-30T06:46:51;5.35;;;3.63;;
78895;SDS011;68284;59.124;37.910;2023-07-30T06:49:17;4.78;;;3.53;;
78895;SDS011;68284;59.124;37.910;2023-07-30T06:51:43;5.28;;;3.22;;
78895;SDS011;68284;59.124;37.910;2023-07-30T06:54:09;4.72;;;3.13;;
78895;SDS011;68284;59.124;37.910;2023-07-30T06:56:36;6.85;;;3.55;;
78895;SDS011;68284;59.124;37.910;2023-07-30T06:59:02;6.55;;;4.15;;
78895;SDS011;68284;59.124;37.910;2023-07-30T07:01:29;7.15;;;3.63;;
78895;SDS011;68284;59.124;37.910;2023-07-30T07:03:55;3.25;;;2.92;;
78895;SDS011;68284;59.124;37.910;2023-07-30T07:06:21;5.45;;;3.53;;
78895;SDS011;68284;59.124;37.910;2023-07-30T07:08:48;5.35;;;2.75;;
78895;SDS011;68284;59.124;37.910;2023-07-30T07:11:14;8.70;;;3.60;;
78895;SDS011;68284;59.124;37.910;2023-07-30T07:13:40;5.85;;;2.92;;
78895;SDS011;68284;59.124;37.910;2023-07-30T07:16:06;6.55;;;3.03;;
78895;SDS011;68284;59.124;37.910;2023-07-30T07:18:32;3.83;;;3.08;;
78895;SDS011;68284;59.124;37.910;2023-07-30T07:20:59;4.57;;;3.10;;
78895;SDS011;68284;59.124;37.910;2023-07-30T07:23:25;4.07;;;2.83;;
78895;SDS011;68284;59.124;37.910;2023-07-30T07:25:51;4.57;;;3.22;;
78895;SDS011;68284;59.124;37.910;2023-07-30T07:28:18;4.13;;;3.10;;
78895;SDS011;68284;59.124;37.910;2023-07-30T07:30:44;5.80;;;3.75;;
78895;SDS011;68284;59.124;37.910;2023-07-30T07:33:10;6.85;;;4.25;;
78895;SDS011;68284;59.124;37.910;2023-07-30T07:35:39;5.10;;;3.35;;
78895;SDS011;68284;59.124;37.910;2023-07-30T07:38:06;4.22;;;3.20;;
78895;SDS011;68284;59.124;37.910;2023-07-30T07:40:36;6.15;;;2.65;;
78895;SDS011;68284;59.124;37.910;2023-07-30T07:43:06;6.88;;;2.63;;
78895;SDS011;68284;59.124;37.910;2023-07-30T07:45:33;3.70;;;2.60;;
78895;SDS011;68284;59.124;37.910;2023-07-30T07:48:00;4.88;;;3.50;;
78895;SDS011;68284;59.124;37.910;2023-07-30T07:50:26;6.55;;;3.58;;
78895;SDS011;68284;59.124;37.910;2023-07-30T07:52:53;4.38;;;3.40;;
78895;SDS011;68284;59.124;37.910;2023-07-30T07:55:19;3.88;;;3.35;;
78895;SDS011;68284;59.124;37.910;2023-07-30T07:57:45;3.20;;;2.40;;
78895;SDS011;68284;59.124;37.910;2023-07-30T08:00:11;4.00;;;2.95;;
78895;SDS011;68284;59.124;37.910;2023-07-30T08:02:38;5.68;;;2.95;;
78895;SDS011;68284;59.124;37.910;2023-07-30T08:05:05;4.75;;;2.83;;
78895;SDS011;68284;59.124;37.910;2023-07-30T08:07:31;2.25;;;1.85;;
78895;SDS011;68284;59.124;37.910;2023-07-30T08:09:57;6.15;;;2.78;;
78895;SDS011;68284;59.124;37.910;2023-07-30T08:12:24;4.05;;;2.28;;
78895;SDS011;68284;59.124;37.910;2023-07-30T08:14:50;4.63;;;3.53;;
78895;SDS011;68284;59.124;37.910;2023-07-30T08:17:18;4.43;;;2.97;;
78895;SDS011;68284;59.124;37.910;2023-07-30T08:19:44;3.95;;;2.60;;
78895;SDS011;68284;59.124;37.910;2023-07-30T08:22:11;5.32;;;3.40;;
78895;SDS011;68284;59.124;37.910;2023-07-30T08:24:37;5.85;;;3.58;;
78895;SDS011;68284;59.124;37.910;2023-07-30T08:27:03;5.15;;;3.20;;
78895;SDS011;68284;59.124;37.910;2023-07-30T08:29:29;5.15;;;3.17;;
78895;SDS011;68284;59.124;37.910;2023-07-30T08:31:56;4.35;;;2.55;;
78895;SDS011;68284;59.124;37.910;2023-07-30T08:34:22;4.20;;;2.80;;
78895;SDS011;68284;59.124;37.910;2023-07-30T08:36:49;3.15;;;2.53;;
78895;SDS011;68284;59.124;37.910;2023-07-30T08:39:15;5.97;;;3.58;;
78895;SDS011;68284;59.124;37.910;2023-07-30T08:41:41;7.55;;;3.30;;
78895;SDS011;68284;59.124;37.910;2023-07-30T08:44:08;7.47;;;4.05;;
78895;SDS011;68284;59.124;37.910;2023-07-30T08:46:35;5.28;;;4.25;;
78895;SDS011;68284;59.124;37.910;2023-07-30T08:49:01;7.45;;;4.05;;
78895;SDS011;68284;59.124;37.910;2023-07-30T08:51:27;6.95;;;3.50;;
78895;SDS011;68284;59.124;37.910;2023-07-30T08:53:54;7.63;;;4.35;;
78895;SDS011;68284;59.124;37.910;2023-07-30T08:56:23;7.20;;;3.80;;
78895;SDS011;68284;59.124;37.910;2023-07-30T08:58:49;5.03;;;3.40;;
78895;SDS011;68284;59.124;37.910;2023-07-30T09:01:19;11.27;;;3.63;;
78895;SDS011;68284;59.124;37.910;2023-07-30T09:03:47;6.30;;;3.45;;
78895;SDS011;68284;59.124;37.910;2023-07-30T09:06:15;4.97;;;3.20;;
78895;SDS011;68284;59.124;37.910;2023-07-30T09:08:41;7.45;;;3.15;;
78895;SDS011;68284;59.124;37.910;2023-07-30T09:11:10;4.20;;;2.25;;
78895;SDS011;68284;59.124;37.910;2023-07-30T09:13:37;3.10;;;2.90;;
78895;SDS011;68284;59.124;37.910;2023-07-30T09:16:11;3.20;;;2.42;;
78895;SDS011;68284;59.124;37.910;2023-07-30T09:18:39;4.22;;;3.10;;
78895;SDS011;68284;59.124;37.910;2023-07-30T09:21:10;3.65;;;3.05;;
78895;SDS011;68284;59.124;37.910;2023-07-30T09:23:43;6.20;;;2.70;;
78895;SDS011;68284;59.124;37.910;2023-07-30T09:26:10;7.35;;;3.38;;
78895;SDS011;68284;59.124;37.910;2023-07-30T09:28:37;4.53;;;2.60;;
78895;SDS011;68284;59.124;37.910;2023-07-30T09:31:06;3.47;;;2.47;;
78895;SDS011;68284;59.124;37.910;2023-07-30T09:33:34;2.85;;;2.25;;
78895;SDS011;68284;59.124;37.910;2023-07-30T09:36:01;5.85;;;2.72;;
78895;SDS011;68284;59.124;37.910;2023-07-30T09:38:28;4.80;;;2.63;;
78895;SDS011;68284;59.124;37.910;2023-07-30T09:41:02;4.00;;;2.35;;
78895;SDS011;68284;59.124;37.910;2023-07-30T09:43:29;3.15;;;2.55;;
78895;SDS011;68284;59.124;37.910;2023-07-30T09:46:05;4.60;;;2.70;;
78895;SDS011;68284;59.124;37.910;2023-07-30T09:48:33;5.65;;;3.45;;
78895;SDS011;68284;59.124;37.910;2023-07-30T09:51:00;7.05;;;4.40;;
78895;SDS011;68284;59.124;37.910;2023-07-30T09:53:31;4.40;;;3.45;;
78895;SDS011;68284;59.124;37.910;2023-07-30T09:56:02;2.15;;;1.95;;
78895;SDS011;68284;59.124;37.910;2023-07-30T09:58:29;3.75;;;2.17;;
78895;SDS011;68284;59.124;37.910;2023-07-30T10:00:58;4.47;;;2.88;;
78895;SDS011;68284;59.124;37.910;2023-07-30T10:03:27;7.90;;;4.47;;
78895;SDS011;68284;59.124;37.910;2023-07-30T10:05:59;5.20;;;3.17;;
78895;SDS011;68284;59.124;37.910;2023-07-30T10:08:29;3.28;;;2.95;;
78895;SDS011;68284;59.124;37.910;2023-07-30T10:11:00;4.53;;;2.13;;
78895;SDS011;68284;59.124;37.910;2023-07-30T10:13:28;2.75;;;1.52;;
78895;SDS011;68284;59.124;37.910;2023-07-30T10:15:55;4.03;;;2.83;;
78895;SDS011;68284;59.124;37.910;2023-07-30T10:18:32;3.50;;;2.58;;
78895;SDS011;68284;59.124;37.910;2023-07-30T10:21:00;2.33;;;1.80;;
78895;SDS011;68284;59.124;37.910;2023-07-30T10:23:28;3.88;;;2.28;;
78895;SDS011;68284;59.124;37.910;2023-07-30T10:25:58;4.85;;;2.55;;
78895;SDS011;68284;59.124;37.910;2023-07-30T10:28:34;2.85;;;2.60;;
78895;SDS011;68284;59.124;37.910;2023-07-30T10:31:04;2.90;;;1.50;;
78895;SDS011;68284;59.124;37.910;2023-07-30T10:33:47;2.50;;;1.90;;
78895;SDS011;68284;59.124;37.910;2023-07-30T10:39:17;2.58;;;1.88;;
78895;SDS011;68284;59.124;37.910;2023-07-30T10:41:45;2.30;;;2.08;;
78895;SDS011;68284;59.124;37.910;2023-07-30T10:44:19;3.63;;;2.25;;
78895;SDS011;68284;59.124;37.910;2023-07-30T10:46:48;4.07;;;1.48;;
78895;SDS011;68284;59.124;37.910;2023-07-30T10:49:15;2.08;;;1.63;;
78895;SDS011;68284;59.124;37.910;2023-07-30T10:51:41;2.22;;;1.60;;
78895;SDS011;68284;59.124;37.910;2023-07-30T10:54:07;5.00;;;2.58;;
78895;SDS011;68284;59.124;37.910;2023-07-30T10:56:36;4.55;;;2.97;;
78895;SDS011;68284;59.124;37.910;2023-07-30T10:59:06;2.55;;;2.00;;
78895;SDS011;68284;59.124;37.910;2023-07-30T11:01:37;2.42;;;2.20;;
78895;SDS011;68284;59.124;37.910;2023-07-30T11:04:18;3.60;;;1.77;;
78895;SDS011;68284;59.124;37.910;2023-07-30T11:06:49;7.40;;;2.45;;
78895;SDS011;68284;59.124;37.910;2023-07-30T11:09:19;3.75;;;2.08;;
78895;SDS011;68284;59.124;37.910;2023-07-30T11:11:46;2.53;;;2.30;;
78895;SDS011;68284;59.124;37.910;2023-07-30T11:14:16;3.03;;;1.90;;
78895;SDS011;68284;59.124;37.910;2023-07-30T11:16:49;4.07;;;2.08;;
78895;SDS011;68284;59.124;37.910;2023-07-30T11:19:16;2.13;;;1.70;;
78895;SDS011;68284;59.124;37.910;2023-07-30T11:21:44;2.97;;;2.20;;
78895;SDS011;68284;59.124;37.910;2023-07-30T11:24:14;3.15;;;2.55;;
78895;SDS011;68284;59.124;37.910;2023-07-30T11:26:41;3.72;;;2.03;;
78895;SDS011;68284;59.124;37.910;2023-07-30T11:29:17;2.83;;;2.50;;
78895;SDS011;68284;59.124;37.910;2023-07-30T11:31:45;2.75;;;1.90;;
78895;SDS011;68284;59.124;37.910;2023-07-30T11:34:13;2.60;;;2.40;;
78895;SDS011;68284;59.124;37.910;2023-07-30T11:36:40;2.05;;;1.67;;
78895;SDS011;68284;59.124;37.910;2023-07-30T11:39:07;3.53;;;2.63;;
78895;SDS011;68284;59.124;37.910;2023-07-30T11:41:34;4.03;;;2.53;;
78895;SDS011;68284;59.124;37.910;2023-07-30T11:44:01;3.78;;;1.80;;
78895;SDS011;68284;59.124;37.910;2023-07-30T11:46:28;2.80;;;2.53;;
78895;SDS011;68284;59.124;37.910;2023-07-30T11:49:14;3.45;;;1.85;;
78895;SDS011;68284;59.124;37.910;2023-07-30T11:51:47;2.40;;;2.08;;
78895;SDS011;68284;59.124;37.910;2023-07-30T11:54:20;1.95;;;1.73;;
78895;SDS011;68284;59.124;37.910;2023-07-30T11:56:53;2.10;;;1.90;;
78895;SDS011;68284;59.124;37.910;2023-07-30T11:59:21;2.97;;;2.75;;
78895;SDS011;68284;59.124;37.910;2023-07-30T12:01:48;3.45;;;2.40;;
78895;SDS011;68284;59.124;37.910;2023-07-30T12:04:15;2.33;;;1.77;;
78895;SDS011;68284;59.124;37.910;2023-07-30T12:06:44;1.88;;;1.77;;
78895;SDS011;68284;59.124;37.910;2023-07-30T12:09:16;2.60;;;2.40;;
78895;SDS011;68284;59.124;37.910;2023-07-30T12:11:57;4.68;;;2.10;;
78895;SDS011;68284;59.124;37.910;2023-07-30T12:14:26;3.00;;;1.98;;
78895;SDS011;68284;59.124;37.910;2023-07-30T12:16:56;2.03;;;1.70;;
78895;SDS011;68284;59.124;37.910;2023-07-30T12:19:26;2.03;;;1.83;;
78895;SDS011;68284;59.124;37.910;2023-07-30T12:21:52;2.95;;;2.65;;
78895;SDS011;68284;59.124;37.910;2023-07-30T12:24:19;3.83;;;1.92;;
78895;SDS011;68284;59.124;37.910;2023-07-30T12:26:47;2.47;;;2.28;;
78895;SDS011;68284;59.124;37.910;2023-07-30T12:29:14;3.83;;;2.30;;
78895;SDS011;68284;59.124;37.910;2023-07-30T12:31:40;3.13;;;2.78;;
78895;SDS011;68284;59.124;37.910;2023-07-30T12:34:06;2.38;;;1.92;;
78895;SDS011;68284;59.124;37.910;2023-07-30T12:36:33;2.38;;;1.65;;
78895;SDS011;68284;59.124;37.910;2023-07-30T12:38:59;4.50;;;2.47;;
78895;SDS011;68284;59.124;37.910;2023-07-30T12:41:25;3.28;;;2.03;;
78895;SDS011;68284;59.124;37.910;2023-07-30T12:43:52;2.00;;;1.80;;
78895;SDS011;68284;59.124;37.910;2023-07-30T12:46:19;3.40;;;2.90;;
78895;SDS011;68284;59.124;37.910;2023-07-30T12:48:46;3.88;;;2.45;;
78895;SDS011;68284;59.124;37.910;2023-07-30T12:51:12;7.00;;;3.83;;
78895;SDS011;68284;59.124;37.910;2023-07-30T12:53:39;2.30;;;2.10;;
78895;SDS011;68284;59.124;37.910;2023-07-30T12:56:05;2.30;;;2.10;;
78895;SDS011;68284;59.124;37.910;2023-07-30T12:58:31;2.83;;;2.22;;
78895;SDS011;68284;59.124;37.910;2023-07-30T13:00:57;2.03;;;1.90;;
78895;SDS011;68284;59.124;37.910;2023-07-30T13:03:24;2.75;;;1.98;;
78895;SDS011;68284;59.124;37.910;2023-07-30T13:05:50;3.95;;;2.22;;
78895;SDS011;68284;59.124;37.910;2023-07-30T13:08:16;2.65;;;2.13;;
78895;SDS011;68284;59.124;37.910;2023-07-30T13:10:42;3.05;;;2.63;;
78895;SDS011;68284;59.124;37.910;2023-07-30T13:13:09;3.55;;;2.40;;
78895;SDS011;68284;59.124;37.910;2023-07-30T13:15:35;4.90;;;2.58;;
78895;SDS011;68284;59.124;37.910;2023-07-30T13:18:01;6.30;;;2.83;;
78895;SDS011;68284;59.124;37.910;2023-07-30T13:20:27;1.77;;;1.60;;
78895;SDS011;68284;59.124;37.910;2023-07-30T13:22:53;2.22;;;1.77;;
78895;SDS011;68284;59.124;37.910;2023-07-30T13:25:20;2.10;;;1.90;;
78895;SDS011;68284;59.124;37.910;2023-07-30T13:27:46;4.28;;;1.90;;
78895;SDS011;68284;59.124;37.910;2023-07-30T13:30:12;5.32;;;2.40;;
78895;SDS011;68284;59.124;37.910;2023-07-30T13:32:39;3.83;;;3.10;;
78895;SDS011;68284;59.124;37.910;2023-07-30T13:35:05;6.00;;;2.88;;
78895;SDS011;68284;59.124;37.910;2023-07-30T13:37:31;5.65;;;3.33;;
78895;SDS011;68284;59.124;37.910;2023-07-30T13:39:57;4.30;;;2.67;;
78895;SDS011;68284;59.124;37.910;2023-07-30T13:42:24;4.57;;;3.00;;
78895;SDS011;68284;59.124;37.910;2023-07-30T13:44:50;5.57;;;3.67;;
78895;SDS011;68284;59.124;37.910;2023-07-30T13:47:17;6.72;;;3.83;;
78895;SDS011;68284;59.124;37.910;2023-07-30T13:49:43;7.07;;;5.43;;
78895;SDS011;68284;59.124;37.910;2023-07-30T13:52:09;7.60;;;4.40;;
78895;SDS011;68284;59.124;37.910;2023-07-30T13:54:36;5.13;;;3.65;;
78895;SDS011;68284;59.124;37.910;2023-07-30T13:57:02;12.60;;;4.22;;
78895;SDS011;68284;59.124;37.910;2023-07-30T13:59:30;7.85;;;3.15;;
78895;SDS011;68284;59.124;37.910;2023-07-30T14:01:57;3.65;;;3.17;;
78895;SDS011;68284;59.124;37.910;2023-07-30T14:04:23;5.57;;;3.17;;
78895;SDS011;68284;59.124;37.910;2023-07-30T14:06:49;3.45;;;2.42;;
78895;SDS011;68284;59.124;37.910;2023-07-30T14:09:16;3.63;;;2.30;;
78895;SDS011;68284;59.124;37.910;2023-07-30T14:11:42;5.18;;;3.47;;
78895;SDS011;68284;59.124;37.910;2023-07-30T14:14:11;3.75;;;2.10;;
78895;SDS011;68284;59.124;37.910;2023-07-30T14:16:37;2.58;;;2.20;;
78895;SDS011;68284;59.124;37.910;2023-07-30T14:19:04;2.70;;;2.30;;
78895;SDS011;68284;59.124;37.910;2023-07-30T14:21:30;3.13;;;2.60;;
78895;SDS011;68284;59.124;37.910;2023-07-30T14:23:56;4.32;;;2.00;;
78895;SDS011;68284;59.124;37.910;2023-07-30T14:26:22;2.75;;;2.55;;
78895;SDS011;68284;59.124;37.910;2023-07-30T14:28:49;6.65;;;2.75;;
78895;SDS011;68284;59.124;37.910;2023-07-30T14:31:15;2.88;;;2.20;;
78895;SDS011;68284;59.124;37.910;2023-07-30T14:33:41;3.00;;;2.42;;
78895;SDS011;68284;59.124;37.910;2023-07-30T14:36:08;2.58;;;1.80;;
78895;SDS011;68284;59.124;37.910;2023-07-30T14:38:36;2.58;;;1.90;;
78895;SDS011;68284;59.124;37.910;2023-07-30T14:41:03;2.90;;;2.58;;
78895;SDS011;68284;59.124;37.910;2023-07-30T14:43:31;3.75;;;2.70;;
78895;SDS011;68284;59.124;37.910;2023-07-30T14:45:57;2.72;;;2.13;;
78895;SDS011;68284;59.124;37.910;2023-07-30T14:48:23;4.88;;;2.63;;
78895;SDS011;68284;59.124;37.910;2023-07-30T14:50:50;4.75;;;2.97;;
78895;SDS011;68284;59.124;37.910;2023-07-30T14:53:16;4.18;;;2.28;;
78895;SDS011;68284;59.124;37.910;2023-07-30T14:55:42;3.65;;;2.15;;
78895;SDS011;68284;59.124;37.910;2023-07-30T14:58:08;3.38;;;2.17;;
78895;SDS011;68284;59.124;37.910;2023-07-30T15:00:35;2.40;;;2.13;;